Alm Zurich — V7NG2 — position and weather

sailwx.info

Track history (hours):
 
Tides and Currents Weather Stations Pressure Air Temp Water Temp Dewpoint Dewpoint Depression Visibility Wind Speed Wind Dir Waves Ship Positions

Alm Zurich

Last reported at 2017-Mar-16 11:11 UTC. Time now 2017-Mar-26 03:41 UTC.
Position N 25°45' W 125°37'.
Warning: this ship's position is 9 days out of date.

Length 294 m; draft 11.5 m.

Type: Ship (hazmat cat A). MMSI: 538002956.

Date/timePositionNaut miles runAvg speedWind from/ knotsBaromVisibWave heightAir tempDewpointWater temp
2017-Mar-16 11:11N 25°45' W 125°37'1520.0
2017-Mar-16 10:27N 25°40' W 125°21'  
2017-Mar-09 19:20N 09°15' W 079°55'0 0.0
2017-Mar-09 18:33N 09°15' W 079°55'0 0.0
2017-Mar-09 17:17N 09°15' W 079°55'0 0.0
2017-Mar-09 16:28N 09°15' W 079°55'0 0.0
2017-Mar-09 15:26N 09°15' W 079°55'3 0.7
2017-Mar-09 11:20N 09°18' W 079°55'5 6.0
2017-Mar-09 10:33N 09°22' W 079°55'3 3.0
2017-Mar-09 09:33N 09°25' W 079°54'4 3.5
2017-Mar-09 08:31N 09°22' W 079°53'0 0.0
2017-Mar-09 07:31N 09°22' W 079°53'0 0.0
2017-Mar-09 06:28N 09°22' W 079°53'0 0.0
2017-Mar-09 05:28N 09°22' W 079°53'0 0.0
2017-Mar-09 04:31N 09°22' W 079°53'0 0.0
2017-Mar-09 03:34N 09°21' W 079°53'0 0.0
2017-Mar-09 02:33N 09°22' W 079°53'0 0.0
2017-Mar-09 01:33N 09°22' W 079°53'0 0.0
2017-Mar-09 00:33N 09°22' W 079°53'0 0.0
2017-Mar-08 23:33N 09°22' W 079°53'0 0.0
2017-Mar-08 22:33N 09°22' W 079°53'5 5.2
2017-Mar-08 21:33N 09°27' W 079°53'  
Track history (hours):
 
Tides and Currents Weather Stations Pressure Air Temp Water Temp Dewpoint Dewpoint Depression Visibility Wind Speed Wind Dir Waves Ship Positions

Alm Zurich

Last reported at 2017-Mar-16 11:11 UTC. Time now 2017-Mar-26 03:41 UTC.
Position N 25°45' W 125°37'.
Warning: this ship's position is 9 days out of date.

Length 294 m; draft 11.5 m.

Type: Ship (hazmat cat A). MMSI: 538002956.

Date/timePositionNaut miles runAvg speedWind from/ knotsBaromVisibWave heightAir tempDewpointWater temp
2017-Mar-16 11:11N 25°45' W 125°37'1520.0
2017-Mar-16 10:27N 25°40' W 125°21'  
2017-Mar-09 19:20N 09°15' W 079°55'0 0.0
2017-Mar-09 18:33N 09°15' W 079°55'0 0.0
2017-Mar-09 17:17N 09°15' W 079°55'0 0.0
2017-Mar-09 16:28N 09°15' W 079°55'0 0.0
2017-Mar-09 15:26N 09°15' W 079°55'3 0.7
2017-Mar-09 11:20N 09°18' W 079°55'5 6.0
2017-Mar-09 10:33N 09°22' W 079°55'3 3.0
2017-Mar-09 09:33N 09°25' W 079°54'4 3.5
2017-Mar-09 08:31N 09°22' W 079°53'0 0.0
2017-Mar-09 07:31N 09°22' W 079°53'0 0.0
2017-Mar-09 06:28N 09°22' W 079°53'0 0.0
2017-Mar-09 05:28N 09°22' W 079°53'0 0.0
2017-Mar-09 04:31N 09°22' W 079°53'0 0.0
2017-Mar-09 03:34N 09°21' W 079°53'0 0.0
2017-Mar-09 02:33N 09°22' W 079°53'0 0.0
2017-Mar-09 01:33N 09°22' W 079°53'0 0.0
2017-Mar-09 00:33N 09°22' W 079°53'0 0.0
2017-Mar-08 23:33N 09°22' W 079°53'0 0.0
2017-Mar-08 22:33N 09°22' W 079°53'5 5.2
2017-Mar-08 21:33N 09°27' W 079°53'  

Dump ship's entire track history